createdAt,value
2019-03-21T00:02:15.580Z,69.31
2019-03-21T00:04:51.808Z,69.59
2019-03-21T00:07:24.192Z,69.64
2019-03-21T00:10:22.827Z,69.49
2019-03-21T00:12:55.474Z,69.78
2019-03-21T00:15:34.715Z,69.68
2019-03-21T00:18:13.284Z,69.99
2019-03-21T00:20:46.023Z,69.63
2019-03-21T00:23:18.704Z,69.71
2019-03-21T00:25:51.371Z,69.76
2019-03-21T00:28:24.113Z,69.93
2019-03-21T00:30:58.634Z,69.94
2019-03-21T00:33:31.446Z,70.03
2019-03-21T00:36:04.123Z,69.78
2019-03-21T00:38:36.784Z,70.11
2019-03-21T00:41:09.464Z,70.10
2019-03-21T00:43:42.123Z,70.00
2019-03-21T00:46:14.802Z,70.12
2019-03-21T00:48:47.472Z,70.29
2019-03-21T00:51:20.138Z,70.48
2019-03-21T00:53:52.839Z,70.17
2019-03-21T00:56:25.511Z,70.02
2019-03-21T00:58:59.244Z,69.88
2019-03-21T01:01:31.926Z,70.14
2019-03-21T01:04:04.576Z,70.29
2019-03-21T01:06:37.230Z,70.43
2019-03-21T01:09:12.087Z,70.30
2019-03-21T01:11:44.736Z,70.41
2019-03-21T01:14:29.186Z,70.46
2019-03-21T01:16:53.374Z,70.54
2019-03-21T01:19:26.121Z,70.60
2019-03-21T01:22:00.012Z,70.67
2019-03-21T01:24:32.683Z,70.62
2019-03-21T01:27:05.359Z,70.65
2019-03-21T01:29:37.994Z,70.52
2019-03-21T01:32:10.774Z,70.43
2019-03-21T01:34:44.700Z,70.56
2019-03-21T01:37:18.519Z,70.53
2019-03-21T01:39:51.292Z,70.64
2019-03-21T01:42:24.021Z,70.91
2019-03-21T01:44:56.716Z,70.84
2019-03-21T01:47:29.370Z,70.93
2019-03-21T01:50:02.121Z,71.08
2019-03-21T01:52:36.038Z,71.21
2019-03-21T01:55:11.487Z,71.17
2019-03-21T01:57:44.179Z,71.08
2019-03-21T02:00:21.884Z,71.01
2019-03-21T02:02:56.434Z,71.11
2019-03-21T02:05:29.577Z,71.02
2019-03-21T02:08:02.308Z,70.98
2019-03-21T02:10:35.132Z,71.28
2019-03-21T02:13:07.927Z,71.23
2019-03-21T02:15:40.886Z,71.48
2019-03-21T02:18:13.775Z,71.41
2019-03-21T02:20:46.427Z,71.38
2019-03-21T02:23:19.062Z,71.41
2019-03-21T02:25:51.743Z,71.34
2019-03-21T02:28:24.513Z,71.37
2019-03-21T02:30:57.314Z,71.49
2019-03-21T02:33:34.034Z,71.51
2019-03-21T02:36:08.429Z,71.58
2019-03-21T02:38:42.317Z,71.41
2019-03-21T02:41:15.461Z,71.29
2019-03-21T02:43:48.113Z,71.42
2019-03-21T02:46:20.770Z,71.37
2019-03-21T02:48:54.690Z,71.33
2019-03-21T02:51:27.484Z,71.54
2019-03-21T02:54:00.122Z,71.53
2019-03-21T02:56:32.789Z,71.79
2019-03-21T02:59:05.719Z,71.92
2019-03-21T03:01:38.530Z,71.98
2019-03-21T03:04:11.181Z,71.84
2019-03-21T03:06:44.002Z,71.71
2019-03-21T03:09:16.633Z,71.67
2019-03-21T03:11:49.420Z,71.69
2019-03-21T03:14:22.087Z,71.47
2019-03-21T03:16:54.855Z,71.91
2019-03-21T03:19:27.564Z,71.81
2019-03-21T03:22:00.286Z,71.89
2019-03-21T03:24:35.016Z,72.10
2019-03-21T03:27:07.664Z,72.22
2019-03-21T03:29:40.466Z,72.32
2019-03-21T03:32:13.154Z,72.25
2019-03-21T03:34:45.921Z,72.04
2019-03-21T03:37:18.695Z,72.00
2019-03-21T03:39:51.402Z,72.04
2019-03-21T03:42:24.364Z,72.22
2019-03-21T03:44:57.034Z,72.08
2019-03-21T03:47:29.757Z,72.21
2019-03-21T03:50:02.600Z,72.17
2019-03-21T03:52:35.403Z,72.12
2019-03-21T03:55:09.750Z,72.17
2019-03-21T03:57:42.517Z,72.25
2019-03-21T04:00:17.990Z,72.30
2019-03-21T04:02:52.287Z,72.18
2019-03-21T04:05:24.945Z,71.85
2019-03-21T04:07:57.745Z,71.94
2019-03-21T04:10:33.933Z,71.98
2019-03-21T04:13:06.607Z,71.85
2019-03-21T04:15:51.619Z,72.02
2019-03-21T04:18:13.861Z,71.93
2019-03-21T04:20:47.833Z,71.73
2019-03-21T04:23:21.201Z,71.65
2019-03-21T04:26:04.757Z,71.60
2019-03-21T04:28:37.482Z,71.69
2019-03-21T04:31:10.170Z,72.02
2019-03-21T04:33:43.681Z,71.32
2019-03-21T04:36:16.353Z,71.32
2019-03-21T04:38:49.111Z,71.14
2019-03-21T04:41:21.815Z,70.97
2019-03-21T04:43:54.566Z,71.22
2019-03-21T04:46:27.333Z,71.42
2019-03-21T04:48:59.989Z,71.79
2019-03-21T04:51:32.696Z,71.60
2019-03-21T04:54:06.883Z,71.51
2019-03-21T04:56:39.993Z,71.64
2019-03-21T04:59:12.763Z,71.57
2019-03-21T05:01:45.472Z,71.58
2019-03-21T05:04:18.146Z,71.59
2019-03-21T05:06:50.886Z,71.59
2019-03-21T05:09:23.594Z,71.48
2019-03-21T05:11:56.423Z,71.49
2019-03-21T05:14:29.042Z,71.33
2019-03-21T05:17:02.824Z,71.62
2019-03-21T05:19:36.631Z,71.49
2019-03-21T05:22:09.285Z,71.51
2019-03-21T05:24:43.257Z,71.47
2019-03-21T05:27:16.062Z,71.40
2019-03-21T05:29:48.857Z,71.30
2019-03-21T05:32:21.526Z,71.47
2019-03-21T05:34:54.153Z,71.51
2019-03-21T05:37:26.808Z,71.35
2019-03-21T05:39:59.427Z,71.34
2019-03-21T05:42:32.099Z,71.38
2019-03-21T05:45:04.946Z,71.09
2019-03-21T05:47:37.609Z,70.55
2019-03-21T05:50:14.955Z,70.23
2019-03-21T05:52:46.952Z,69.64
2019-03-21T05:55:20.577Z,69.22
2019-03-21T05:57:53.222Z,68.60
2019-03-21T06:00:34.859Z,68.14
2019-03-21T06:03:15.799Z,68.12
2019-03-21T06:05:56.204Z,67.65
2019-03-21T06:08:33.167Z,67.14
2019-03-21T06:11:07.098Z,66.63
2019-03-21T06:13:39.871Z,65.23
2019-03-21T06:16:13.272Z,64.70
2019-03-21T06:19:33.301Z,64.16
2019-03-21T06:22:52.356Z,64.02
2019-03-21T06:26:22.325Z,63.59
2019-03-21T06:28:55.089Z,63.85
2019-03-21T06:31:27.739Z,61.77
2019-03-21T06:34:00.387Z,59.52
2019-03-21T06:36:34.107Z,59.99
2019-03-21T06:39:09.482Z,60.04
2019-03-21T06:41:42.206Z,59.82
2019-03-21T06:44:14.575Z,60.89
2019-03-21T06:46:49.777Z,59.39
2019-03-21T06:49:21.437Z,58.96
2019-03-21T06:51:53.814Z,58.56
2019-03-21T06:54:26.186Z,58.25
2019-03-21T06:56:58.766Z,58.72
2019-03-21T06:59:31.142Z,59.01
2019-03-21T07:02:03.514Z,57.67
2019-03-21T07:04:35.889Z,58.06
2019-03-21T07:07:08.768Z,56.70
2019-03-21T07:09:41.157Z,56.56
2019-03-21T07:12:13.553Z,56.55
2019-03-21T07:14:45.925Z,56.61
2019-03-21T07:17:19.389Z,55.87
2019-03-21T07:19:51.774Z,56.02
2019-03-21T07:22:24.128Z,55.42
2019-03-21T07:24:56.586Z,55.30
2019-03-21T07:27:29.002Z,55.04
2019-03-21T07:30:01.362Z,55.24
2019-03-21T07:32:33.821Z,56.28
2019-03-21T07:35:07.994Z,54.57
2019-03-21T07:37:40.447Z,53.87
2019-03-21T07:40:14.065Z,53.47
2019-03-21T07:42:46.475Z,52.45
2019-03-21T07:45:18.868Z,47.30
2019-03-21T07:47:51.311Z,47.62
2019-03-21T07:50:23.681Z,47.16
2019-03-21T07:53:00.253Z,45.98
2019-03-21T07:55:35.931Z,45.08
2019-03-21T07:58:09.312Z,45.01
2019-03-21T08:00:41.680Z,43.53
2019-03-21T08:03:14.056Z,43.59
2019-03-21T08:05:46.418Z,42.99
2019-03-21T08:08:18.819Z,43.67
2019-03-21T08:10:51.186Z,43.47
2019-03-21T08:13:23.558Z,43.40
2019-03-21T08:15:55.928Z,42.94
2019-03-21T08:18:28.304Z,42.37
2019-03-21T08:21:00.683Z,41.90
2019-03-21T08:23:33.201Z,42.31
2019-03-21T08:26:05.592Z,42.50
2019-03-21T08:28:37.985Z,42.23
2019-03-21T08:31:18.484Z,41.10
2019-03-21T08:33:51.380Z,41.24
2019-03-21T08:36:23.768Z,41.46
2019-03-21T08:38:57.921Z,41.20
2019-03-21T08:41:30.348Z,40.93
2019-03-21T08:44:02.779Z,40.50
2019-03-21T08:46:35.319Z,40.74
2019-03-21T08:49:07.735Z,41.63
2019-03-21T08:51:40.116Z,40.63
2019-03-21T08:54:12.522Z,41.67
2019-03-21T08:56:44.900Z,41.07
2019-03-21T08:59:21.344Z,40.46
2019-03-21T09:01:53.934Z,40.65
2019-03-21T09:04:26.398Z,41.33
2019-03-21T09:06:58.850Z,40.58
2019-03-21T09:09:31.253Z,40.79
2019-03-21T09:12:03.656Z,40.09
2019-03-21T09:14:36.171Z,40.35
2019-03-21T09:17:08.556Z,40.35
2019-03-21T09:19:40.948Z,40.81
2019-03-21T09:22:15.875Z,39.26
2019-03-21T09:24:47.432Z,39.58
2019-03-21T09:27:19.859Z,39.42
2019-03-21T09:29:53.717Z,39.31
2019-03-21T09:32:26.504Z,40.08
2019-03-21T09:34:59.042Z,40.88
2019-03-21T09:37:31.478Z,41.25
2019-03-21T09:40:04.466Z,41.02
2019-03-21T09:42:36.964Z,39.60
2019-03-21T09:45:09.717Z,40.34
2019-03-21T09:47:42.118Z,40.05
2019-03-21T09:50:26.853Z,39.84
2019-03-21T09:52:59.239Z,40.11
2019-03-21T09:55:31.602Z,40.20
2019-03-21T09:58:03.988Z,40.67
2019-03-21T10:00:37.372Z,40.78
2019-03-21T10:03:09.724Z,40.91
2019-03-21T10:05:42.101Z,40.66
2019-03-21T10:08:14.477Z,40.76
2019-03-21T10:10:46.861Z,41.59
2019-03-21T10:13:19.227Z,42.70
2019-03-21T10:15:51.596Z,40.40
2019-03-21T10:18:23.992Z,40.24
2019-03-21T10:20:56.431Z,41.30
2019-03-21T10:23:28.814Z,40.71
2019-03-21T10:26:01.219Z,40.37
2019-03-21T10:28:33.583Z,40.65
2019-03-21T10:31:05.987Z,40.80
2019-03-21T10:33:38.378Z,40.25
2019-03-21T10:36:10.843Z,39.34
2019-03-21T10:38:43.222Z,39.58
2019-03-21T10:41:15.948Z,41.12
2019-03-21T10:43:48.370Z,39.26
2019-03-21T10:46:20.824Z,37.30
2019-03-21T10:48:53.203Z,36.92
2019-03-21T10:51:25.629Z,36.86
2019-03-21T10:53:58.163Z,37.72
2019-03-21T10:56:30.589Z,36.58
2019-03-21T10:59:02.959Z,35.55
2019-03-21T11:01:35.629Z,36.76
2019-03-21T11:04:07.989Z,37.08
2019-03-21T11:06:40.425Z,35.67
2019-03-21T11:09:12.804Z,34.67
2019-03-21T11:11:45.274Z,35.97
2019-03-21T11:14:17.953Z,35.07
2019-03-21T11:16:50.370Z,36.11
2019-03-21T11:19:22.747Z,36.18
2019-03-21T11:22:05.791Z,34.81
2019-03-21T11:24:29.289Z,35.59
2019-03-21T11:27:01.779Z,34.69
2019-03-21T11:29:34.176Z,35.37
2019-03-21T11:32:06.880Z,34.94
2019-03-21T11:34:39.275Z,36.12
2019-03-21T11:37:11.651Z,36.12
2019-03-21T11:39:44.298Z,35.18
2019-03-21T11:42:16.671Z,35.35
2019-03-21T11:44:49.578Z,35.96
2019-03-21T11:47:22.956Z,35.42
2019-03-21T11:49:55.395Z,36.68
2019-03-21T11:52:27.768Z,36.98
2019-03-21T11:55:00.458Z,35.71
2019-03-21T11:57:33.171Z,36.43
2019-03-21T12:00:06.547Z,36.80
2019-03-21T12:02:38.918Z,36.34
2019-03-21T12:05:11.530Z,37.11
2019-03-21T12:07:43.965Z,38.09
2019-03-21T12:10:17.152Z,36.42
2019-03-21T12:12:49.552Z,36.80
2019-03-21T12:15:21.934Z,36.29
2019-03-21T12:17:54.309Z,36.23
2019-03-21T12:20:36.648Z,36.40
2019-03-21T12:23:09.148Z,35.92
2019-03-21T12:25:41.558Z,36.54
2019-03-21T12:28:13.931Z,35.76
2019-03-21T12:30:46.345Z,36.17
2019-03-21T12:33:18.734Z,35.58
2019-03-21T12:35:51.139Z,37.27
2019-03-21T12:38:23.496Z,36.44
2019-03-21T12:40:55.897Z,34.71
2019-03-21T12:43:28.278Z,36.49
2019-03-21T12:46:00.664Z,37.06
2019-03-21T12:48:33.042Z,36.42
2019-03-21T12:51:05.631Z,36.51
2019-03-21T12:53:39.041Z,37.05
2019-03-21T12:56:11.428Z,36.27
2019-03-21T12:58:43.945Z,35.29
2019-03-21T13:01:16.389Z,35.75
2019-03-21T13:03:48.799Z,36.87
2019-03-21T13:06:21.202Z,35.71
2019-03-21T13:08:53.778Z,37.51
2019-03-21T13:11:26.238Z,36.14
2019-03-21T13:13:58.625Z,35.65
2019-03-21T13:16:32.614Z,36.90
2019-03-21T13:19:05.077Z,36.68
2019-03-21T13:21:37.502Z,36.84
2019-03-21T13:24:09.886Z,38.05
2019-03-21T13:26:42.383Z,37.56
2019-03-21T13:29:15.935Z,37.35
2019-03-21T13:31:48.389Z,37.18
2019-03-21T13:34:20.765Z,37.36
2019-03-21T13:36:53.228Z,37.45
2019-03-21T13:39:25.811Z,37.78
2019-03-21T13:41:58.194Z,37.86
2019-03-21T13:44:30.872Z,37.41
2019-03-21T13:47:03.250Z,37.96
2019-03-21T13:49:35.816Z,38.01
2019-03-21T13:52:08.178Z,37.62
2019-03-21T13:54:40.614Z,37.31
2019-03-21T13:57:13.031Z,38.42
2019-03-21T13:59:45.503Z,38.46
2019-03-21T14:02:17.885Z,37.93
2019-03-21T14:04:50.258Z,37.96
2019-03-21T14:07:22.643Z,38.48
2019-03-21T14:09:55.052Z,38.03
2019-03-21T14:12:28.501Z,36.98
2019-03-21T14:15:01.904Z,37.54
2019-03-21T14:17:34.430Z,37.74
2019-03-21T14:20:08.139Z,38.21
2019-03-21T14:22:40.624Z,37.25
2019-03-21T14:25:13.138Z,37.22
2019-03-21T14:27:45.575Z,36.96
2019-03-21T14:30:19.755Z,37.42
2019-03-21T14:32:52.224Z,36.97
2019-03-21T14:35:24.620Z,36.45
2019-03-21T14:37:58.084Z,37.09
2019-03-21T14:40:30.535Z,37.75
2019-03-21T14:43:02.985Z,36.35
2019-03-21T14:45:35.394Z,36.59
2019-03-21T14:48:08.750Z,37.41
2019-03-21T14:50:41.129Z,37.09
2019-03-21T14:53:13.508Z,37.33
2019-03-21T14:55:47.726Z,37.18
2019-03-21T14:58:20.019Z,36.28
2019-03-21T15:00:52.404Z,36.65
2019-03-21T15:03:24.984Z,36.31
2019-03-21T15:05:57.377Z,36.07
2019-03-21T15:08:29.927Z,36.13
2019-03-21T15:11:02.318Z,35.90
2019-03-21T15:13:34.845Z,35.65
2019-03-21T15:16:07.393Z,35.83
2019-03-21T15:18:39.794Z,35.36
2019-03-21T15:21:12.192Z,35.64
2019-03-21T15:23:44.604Z,36.05
2019-03-21T15:26:16.963Z,36.21
2019-03-21T15:28:49.372Z,36.30
2019-03-21T15:31:21.757Z,36.07
2019-03-21T15:33:54.174Z,36.05
2019-03-21T15:36:26.561Z,36.74
2019-03-21T15:38:58.969Z,36.95
2019-03-21T15:41:31.333Z,37.02
2019-03-21T15:44:03.713Z,36.10
2019-03-21T15:46:36.107Z,36.11
2019-03-21T15:49:08.508Z,36.35
2019-03-21T15:51:40.939Z,36.02
2019-03-21T15:54:13.343Z,36.81
2019-03-21T15:56:45.712Z,36.78
2019-03-21T15:59:18.104Z,36.75
2019-03-21T16:01:50.487Z,37.04
2019-03-21T16:04:22.896Z,36.79
2019-03-21T16:06:55.362Z,36.12
2019-03-21T16:09:27.827Z,36.43
2019-03-21T16:12:00.249Z,36.36
2019-03-21T16:14:32.607Z,36.69
2019-03-21T16:17:05.019Z,36.84
2019-03-21T16:19:38.093Z,37.08
2019-03-21T16:22:11.544Z,36.81
2019-03-21T16:24:43.931Z,36.78
2019-03-21T16:27:16.729Z,36.13
2019-03-21T16:29:49.111Z,36.75
2019-03-21T16:32:21.720Z,37.28
2019-03-21T16:34:54.410Z,36.60
2019-03-21T16:37:26.774Z,36.39
2019-03-21T16:39:59.175Z,36.38
2019-03-21T16:42:31.567Z,36.35
2019-03-21T16:45:03.987Z,36.73
2019-03-21T16:47:36.383Z,36.71
2019-03-21T16:50:09.723Z,36.91
2019-03-21T16:52:42.168Z,37.04
2019-03-21T16:55:14.714Z,36.54
2019-03-21T16:57:47.332Z,36.87
2019-03-21T17:00:19.797Z,36.88
2019-03-21T17:02:52.241Z,37.25
2019-03-21T17:05:24.692Z,37.70
2019-03-21T17:07:57.084Z,37.41
2019-03-21T17:10:30.761Z,37.25
2019-03-21T17:13:04.750Z,38.07
2019-03-21T17:15:37.488Z,38.12
2019-03-21T17:18:09.935Z,38.41
2019-03-21T17:20:42.320Z,38.85
2019-03-21T17:23:14.771Z,38.37
2019-03-21T17:25:47.181Z,38.35
2019-03-21T17:28:19.616Z,39.01
2019-03-21T17:30:52.015Z,39.02
2019-03-21T17:33:25.627Z,39.04
2019-03-21T17:35:58.192Z,39.24
2019-03-21T17:38:30.681Z,39.38
2019-03-21T17:41:03.198Z,39.54
2019-03-21T17:43:35.610Z,39.48
2019-03-21T17:46:08.070Z,39.41
2019-03-21T17:48:40.529Z,39.43
2019-03-21T17:51:14.025Z,39.61
2019-03-21T17:53:46.477Z,39.51
2019-03-21T17:56:18.903Z,39.78
2019-03-21T17:58:51.291Z,40.28
2019-03-21T18:01:23.947Z,40.77
2019-03-21T18:03:56.365Z,41.30
2019-03-21T18:06:28.763Z,41.70
2019-03-21T18:09:01.259Z,41.95
2019-03-21T18:11:34.179Z,42.13
2019-03-21T18:14:06.607Z,42.04
2019-03-21T18:16:39.131Z,42.25
2019-03-21T18:19:11.591Z,42.29
2019-03-21T18:21:44.622Z,42.35
2019-03-21T18:24:18.762Z,42.40
2019-03-21T18:26:51.196Z,42.79
2019-03-21T18:29:24.697Z,42.99
2019-03-21T18:31:57.173Z,43.33
2019-03-21T18:34:29.612Z,43.62
2019-03-21T18:37:02.060Z,44.12
2019-03-21T18:39:34.529Z,44.16
2019-03-21T18:42:08.772Z,44.21
2019-03-21T18:44:41.204Z,44.45
2019-03-21T18:47:13.636Z,45.76
2019-03-21T18:49:48.011Z,45.83
2019-03-21T18:52:20.582Z,46.85
2019-03-21T18:55:05.397Z,47.62
2019-03-21T18:57:27.122Z,47.95
2019-03-21T18:59:59.567Z,47.97
2019-03-21T19:02:32.005Z,48.53
2019-03-21T19:05:05.115Z,49.22
2019-03-21T19:07:37.557Z,49.47
2019-03-21T19:10:11.405Z,50.42
2019-03-21T19:12:43.870Z,50.71
2019-03-21T19:15:16.841Z,51.06
2019-03-21T19:17:49.246Z,51.28
2019-03-21T19:20:21.813Z,51.58
2019-03-21T19:22:54.237Z,51.80
2019-03-21T19:25:26.650Z,52.15
2019-03-21T19:27:59.074Z,52.69
2019-03-21T19:30:31.474Z,52.89
2019-03-21T19:33:03.864Z,53.18
2019-03-21T19:35:36.257Z,53.51
2019-03-21T19:38:08.678Z,53.71
2019-03-21T19:40:41.089Z,53.96
2019-03-21T19:43:13.516Z,54.24
2019-03-21T19:45:45.959Z,54.53
2019-03-21T19:48:19.529Z,54.89
2019-03-21T19:50:51.934Z,54.93
2019-03-21T19:53:24.370Z,55.29
2019-03-21T19:56:07.822Z,55.38
2019-03-21T19:58:30.943Z,55.62
2019-03-21T20:01:03.348Z,55.86
2019-03-21T20:03:36.873Z,55.90
2019-03-21T20:06:09.300Z,55.94
2019-03-21T20:08:41.911Z,56.04
2019-03-21T20:11:14.440Z,56.17
2019-03-21T20:13:47.924Z,56.02
2019-03-21T20:16:20.370Z,56.01
2019-03-21T20:18:52.875Z,56.22
2019-03-21T20:21:25.326Z,56.48
2019-03-21T20:23:57.779Z,56.56
2019-03-21T20:26:30.339Z,56.73
2019-03-21T20:29:02.832Z,56.96
2019-03-21T20:31:35.205Z,57.17
2019-03-21T20:34:07.784Z,57.40
2019-03-21T20:36:41.163Z,57.53
2019-03-21T20:39:13.702Z,57.55
2019-03-21T20:41:46.276Z,57.59
2019-03-21T20:44:18.688Z,57.97
2019-03-21T20:46:51.124Z,57.96
2019-03-21T20:49:23.551Z,58.16
2019-03-21T20:51:55.919Z,58.22
2019-03-21T20:54:28.361Z,58.80
2019-03-21T20:57:02.153Z,58.89
2019-03-21T20:59:34.575Z,59.16
2019-03-21T21:02:07.044Z,59.35
2019-03-21T21:04:39.472Z,59.49
2019-03-21T21:07:11.871Z,59.64
2019-03-21T21:09:44.314Z,59.80
2019-03-21T21:12:16.787Z,60.13
2019-03-21T21:14:49.226Z,60.36
2019-03-21T21:17:21.743Z,60.43
2019-03-21T21:19:54.174Z,60.65
2019-03-21T21:22:26.645Z,60.58
2019-03-21T21:24:59.060Z,60.98
2019-03-21T21:27:31.443Z,61.20
2019-03-21T21:30:03.921Z,61.08
2019-03-21T21:32:36.459Z,61.13
2019-03-21T21:35:10.260Z,61.32
2019-03-21T21:37:42.868Z,61.37
2019-03-21T21:40:15.810Z,61.52
2019-03-21T21:42:48.415Z,61.54
2019-03-21T21:45:21.044Z,61.54
2019-03-21T21:47:53.463Z,61.81
2019-03-21T21:50:25.867Z,62.02
2019-03-21T21:52:58.233Z,62.17
2019-03-21T21:55:30.645Z,62.33
2019-03-21T21:58:04.132Z,62.39
2019-03-21T22:00:36.574Z,62.57
2019-03-21T22:03:08.927Z,62.65
2019-03-21T22:05:41.512Z,62.81
2019-03-21T22:08:13.951Z,62.91
2019-03-21T22:10:46.467Z,62.98
2019-03-21T22:13:18.867Z,63.09
2019-03-21T22:15:51.260Z,63.24
2019-03-21T22:18:23.678Z,63.46
2019-03-21T22:20:56.209Z,63.58
2019-03-21T22:23:28.762Z,63.58
2019-03-21T22:26:01.169Z,63.82
2019-03-21T22:28:33.559Z,63.72
2019-03-21T22:31:05.946Z,63.81
2019-03-21T22:33:38.357Z,63.83
2019-03-21T22:36:10.749Z,63.82
2019-03-21T22:38:44.226Z,64.09
2019-03-21T22:41:18.929Z,64.25
2019-03-21T22:43:50.827Z,64.47
2019-03-21T22:46:23.198Z,64.41
2019-03-21T22:48:55.728Z,64.43
2019-03-21T22:51:28.092Z,64.32
2019-03-21T22:54:00.446Z,64.64
2019-03-21T22:56:41.101Z,64.79
2019-03-21T22:59:07.024Z,64.85
2019-03-21T23:01:39.408Z,65.05
2019-03-21T23:04:11.933Z,65.21
2019-03-21T23:06:44.316Z,65.19
2019-03-21T23:09:16.724Z,65.28
2019-03-21T23:11:49.100Z,65.10
2019-03-21T23:14:21.466Z,65.23
2019-03-21T23:16:53.920Z,65.21
2019-03-21T23:19:26.459Z,65.15
2019-03-21T23:21:58.861Z,65.24
2019-03-21T23:24:31.250Z,65.34
2019-03-21T23:27:03.739Z,65.39
2019-03-21T23:29:36.179Z,65.58
2019-03-21T23:32:08.611Z,65.69
2019-03-21T23:34:40.967Z,65.57
2019-03-21T23:37:13.330Z,65.74
2019-03-21T23:39:45.698Z,65.78
2019-03-21T23:42:19.370Z,65.93
2019-03-21T23:44:51.699Z,65.90
2019-03-21T23:47:24.076Z,65.86
2019-03-21T23:49:56.442Z,65.82
2019-03-21T23:52:28.856Z,65.69
2019-03-21T23:55:01.202Z,65.76
2019-03-21T23:57:33.600Z,65.71
